< < Back
Terminal Aerodrome Forecast


Current Version              Previous Versions:   1  2  3  4  5  6  7  8  9  

Terminal Aerodrome Forecast

182
FTUS42 KGSP 020500
TAFGSP
TAF
KGSP 020535Z 0206/0306 23003KT P6SM SCT250
     FM021500 24006KT P6SM SCT060
     FM022000 25006KT P6SM BKN060 PROB30 0221/0224 4SM TSRA BKN040CB
     FM030000 21004KT P6SM BKN060=

Latest METAR

233
SAUS70 KWBC 020800
MTRGSP
METAR KGSP 020753Z AUTO 21007KT 10SM CLR 23/22 A3007 RMK AO2 SLP168
T02330217


USA.gov is the U.S. government's official web portal to all federal, state and local government web resources and services.